createdAt,value
2019-02-06T00:01:40.328Z,11.00
2019-02-06T00:04:15.312Z,10.80
2019-02-06T00:06:45.639Z,11.30
2019-02-06T00:09:18.131Z,12.20
2019-02-06T00:11:49.755Z,12.30
2019-02-06T00:14:21.370Z,11.67
2019-02-06T00:16:53.005Z,12.27
2019-02-06T00:19:25.189Z,12.17
2019-02-06T00:21:56.889Z,11.77
2019-02-06T00:24:28.494Z,11.43
2019-02-06T00:27:00.738Z,14.00
2019-02-06T00:29:32.302Z,11.27
2019-02-06T00:32:05.439Z,12.80
2019-02-06T00:34:37.042Z,11.57
2019-02-06T00:37:08.721Z,11.80
2019-02-06T00:39:40.416Z,11.60
2019-02-06T00:42:12.726Z,13.67
2019-02-06T00:44:45.015Z,12.50
2019-02-06T00:47:16.612Z,10.90
2019-02-06T00:49:48.243Z,10.70
2019-02-06T00:52:19.872Z,10.57
2019-02-06T00:54:51.470Z,10.87
2019-02-06T00:57:23.758Z,11.33
2019-02-06T00:59:58.369Z,10.10
2019-02-06T01:02:29.169Z,11.23
2019-02-06T01:05:00.806Z,10.33
2019-02-06T01:07:32.513Z,10.53
2019-02-06T01:10:05.502Z,10.87
2019-02-06T01:12:37.806Z,11.27
2019-02-06T01:15:11.321Z,11.53
2019-02-06T01:17:42.945Z,11.10
2019-02-06T01:20:17.223Z,11.57
2019-02-06T01:22:48.840Z,12.00
2019-02-06T01:25:20.665Z,11.60
2019-02-06T01:27:52.323Z,11.77
2019-02-06T01:30:26.682Z,11.10
2019-02-06T01:32:58.574Z,11.63
2019-02-06T01:35:30.243Z,11.30
2019-02-06T01:38:01.930Z,10.97
2019-02-06T01:40:33.570Z,9.80
2019-02-06T01:43:06.821Z,11.53
2019-02-06T01:45:36.750Z,9.80
2019-02-06T01:48:08.568Z,12.10
2019-02-06T01:50:40.272Z,10.57
2019-02-06T01:53:11.925Z,11.20
2019-02-06T01:55:45.256Z,11.13
2019-02-06T01:58:16.900Z,11.37
2019-02-06T02:00:50.140Z,11.07
2019-02-06T02:03:21.767Z,11.40
2019-02-06T02:06:01.651Z,11.80
2019-02-06T02:08:27.721Z,10.17
2019-02-06T02:10:59.474Z,11.70
2019-02-06T02:13:31.110Z,10.70
2019-02-06T02:16:03.119Z,11.50
2019-02-06T02:18:34.712Z,10.10
2019-02-06T02:21:06.634Z,11.17
2019-02-06T02:23:38.601Z,10.90
2019-02-06T02:26:10.540Z,10.87
2019-02-06T02:28:42.627Z,10.53
2019-02-06T02:31:15.667Z,10.47
2019-02-06T02:33:47.870Z,9.50
2019-02-06T02:36:19.939Z,11.40
2019-02-06T02:38:51.590Z,10.20
2019-02-06T02:41:23.287Z,11.03
2019-02-06T02:43:55.540Z,10.30
2019-02-06T02:46:29.355Z,11.77
2019-02-06T02:49:03.239Z,10.90
2019-02-06T02:51:34.931Z,10.20
2019-02-06T02:54:07.138Z,12.37
2019-02-06T02:56:39.032Z,9.90
2019-02-06T02:59:10.701Z,10.80
2019-02-06T03:02:00.165Z,10.27
2019-02-06T03:04:45.114Z,12.50
2019-02-06T03:07:17.010Z,10.70
2019-02-06T03:09:48.611Z,9.60
2019-02-06T03:12:20.405Z,10.90
2019-02-06T03:14:52.086Z,12.00
2019-02-06T03:17:24.294Z,11.13
2019-02-06T03:19:55.914Z,10.80
2019-02-06T03:22:27.510Z,11.20
2019-02-06T03:24:59.372Z,12.13
2019-02-06T03:27:31.013Z,11.73
2019-02-06T03:30:02.698Z,11.10
2019-02-06T03:32:34.983Z,12.60
2019-02-06T03:35:07.895Z,11.33
2019-02-06T03:37:39.527Z,12.77
2019-02-06T03:40:12.414Z,10.50
2019-02-06T03:42:44.296Z,10.63
2019-02-06T03:45:18.242Z,10.67
2019-02-06T03:47:50.552Z,11.13
2019-02-06T03:50:22.532Z,10.80
2019-02-06T03:52:54.195Z,10.90
2019-02-06T03:55:26.236Z,12.50
2019-02-06T03:57:58.402Z,9.90
2019-02-06T04:00:30.105Z,11.00
2019-02-06T04:03:01.716Z,10.50
2019-02-06T04:05:34.284Z,9.93
2019-02-06T04:08:05.917Z,11.13
2019-02-06T04:10:37.837Z,10.33
2019-02-06T04:13:09.465Z,9.90
2019-02-06T04:15:41.100Z,11.20
2019-02-06T04:18:12.771Z,11.87
2019-02-06T04:20:44.891Z,11.63
2019-02-06T04:23:18.520Z,13.00
2019-02-06T04:25:50.214Z,10.77
2019-02-06T04:28:21.976Z,10.37
2019-02-06T04:30:53.596Z,11.57
2019-02-06T04:33:26.212Z,10.53
2019-02-06T04:36:00.115Z,11.57
2019-02-06T04:38:31.701Z,10.33
2019-02-06T04:41:03.312Z,11.23
2019-02-06T04:43:35.561Z,10.60
2019-02-06T04:46:07.221Z,12.63
2019-02-06T04:48:40.474Z,11.70
2019-02-06T04:51:12.485Z,12.60
2019-02-06T04:53:44.077Z,12.33
2019-02-06T04:56:15.741Z,11.60
2019-02-06T04:58:47.475Z,11.20
2019-02-06T05:01:19.368Z,11.77
2019-02-06T05:03:52.747Z,11.20
2019-02-06T05:06:28.717Z,11.10
2019-02-06T05:09:02.012Z,11.40
2019-02-06T05:11:33.651Z,12.47
2019-02-06T05:14:08.061Z,11.73
2019-02-06T05:16:39.798Z,11.70
2019-02-06T05:19:11.485Z,13.07
2019-02-06T05:21:49.604Z,11.60
2019-02-06T05:24:21.552Z,12.10
2019-02-06T05:26:53.271Z,11.50
2019-02-06T05:29:24.953Z,11.30
2019-02-06T05:31:56.590Z,11.73
2019-02-06T05:34:28.370Z,11.93
2019-02-06T05:37:00.209Z,10.80
2019-02-06T05:39:31.795Z,11.17
2019-02-06T05:42:03.852Z,11.33
2019-02-06T05:44:35.749Z,11.70
2019-02-06T05:47:07.405Z,10.30
2019-02-06T05:49:39.118Z,12.40
2019-02-06T05:52:10.726Z,10.17
2019-02-06T05:54:42.536Z,11.77
2019-02-06T05:57:14.791Z,10.63
2019-02-06T05:59:46.520Z,9.67
2019-02-06T06:02:18.173Z,10.67
2019-02-06T06:04:49.834Z,11.83
2019-02-06T06:07:21.546Z,10.60
2019-02-06T06:09:53.208Z,10.70
2019-02-06T06:12:25.485Z,12.27
2019-02-06T06:14:57.136Z,11.40
2019-02-06T06:17:29.334Z,11.37
2019-02-06T06:20:00.954Z,10.57
2019-02-06T06:22:32.563Z,10.80
2019-02-06T06:25:04.820Z,11.03
2019-02-06T06:27:37.353Z,12.40
2019-02-06T06:30:12.698Z,12.20
2019-02-06T06:32:44.372Z,11.60
2019-02-06T06:35:16.532Z,11.63
2019-02-06T06:37:57.668Z,12.40
2019-02-06T06:40:23.499Z,11.20
2019-02-06T06:42:55.777Z,12.50
2019-02-06T06:45:27.753Z,12.17
2019-02-06T06:47:59.405Z,12.17
2019-02-06T06:50:31.086Z,16.70
2019-02-06T06:53:02.840Z,15.50
2019-02-06T06:55:35.345Z,16.73
2019-02-06T06:58:07.241Z,12.50
2019-02-06T07:00:39.250Z,12.30
2019-02-06T07:03:10.920Z,11.90
2019-02-06T07:05:42.748Z,11.57
2019-02-06T07:08:15.574Z,11.37
2019-02-06T07:10:47.221Z,11.20
2019-02-06T07:13:18.876Z,13.00
2019-02-06T07:15:50.876Z,11.30
2019-02-06T07:18:22.551Z,11.80
2019-02-06T07:20:54.595Z,12.60
2019-02-06T07:23:26.247Z,12.10
2019-02-06T07:25:58.002Z,11.73
2019-02-06T07:28:29.693Z,11.70
2019-02-06T07:31:01.973Z,13.13
2019-02-06T07:33:33.663Z,12.90
2019-02-06T07:36:05.324Z,13.40
2019-02-06T07:38:37.068Z,12.97
2019-02-06T07:41:08.800Z,13.67
2019-02-06T07:43:40.883Z,12.60
2019-02-06T07:51:16.598Z,13.10
2019-02-06T07:53:48.396Z,13.17
2019-02-06T07:56:20.098Z,13.23
2019-02-06T07:58:51.778Z,13.60
2019-02-06T08:01:24.077Z,13.20
2019-02-06T08:03:55.760Z,12.77
2019-02-06T08:06:27.491Z,12.87
2019-02-06T08:08:59.216Z,13.27
2019-02-06T08:11:31.161Z,14.20
2019-02-06T08:14:02.935Z,12.20
2019-02-06T08:16:35.450Z,12.23
2019-02-06T08:19:07.129Z,11.90
2019-02-06T08:21:38.776Z,12.17
2019-02-06T08:24:10.428Z,12.77
2019-02-06T08:26:42.053Z,12.97
2019-02-06T08:29:13.898Z,12.67
2019-02-06T08:31:46.208Z,11.83
2019-02-06T08:34:18.179Z,14.10
2019-02-06T08:36:49.875Z,14.80
2019-02-06T08:39:21.678Z,26.47
2019-02-06T08:41:53.607Z,43.57
2019-02-06T08:44:27.883Z,50.47
2019-02-06T08:47:00.701Z,41.00
2019-02-06T08:49:32.488Z,26.10
2019-02-06T08:52:04.245Z,34.90
2019-02-06T08:54:35.912Z,38.47
2019-02-06T08:57:07.554Z,34.20
2019-02-06T08:59:39.282Z,25.07
2019-02-06T09:02:10.927Z,17.70
2019-02-06T09:04:43.046Z,12.77
2019-02-06T09:07:14.789Z,13.07
2019-02-06T09:09:46.465Z,11.47
2019-02-06T09:12:18.211Z,11.20
2019-02-06T09:14:49.843Z,10.77
2019-02-06T09:17:21.960Z,12.60
2019-02-06T09:19:54.018Z,11.40
2019-02-06T09:22:25.664Z,13.50
2019-02-06T09:24:57.355Z,13.50
2019-02-06T09:27:29.924Z,12.13
2019-02-06T09:30:01.579Z,12.43
2019-02-06T09:32:33.645Z,11.57
2019-02-06T09:35:06.314Z,12.27
2019-02-06T09:37:38.013Z,13.20
2019-02-06T09:40:11.343Z,11.37
2019-02-06T09:42:43.025Z,12.17
2019-02-06T09:45:16.385Z,11.97
2019-02-06T09:47:48.180Z,12.00
2019-02-06T09:50:26.637Z,12.97
2019-02-06T09:52:58.979Z,12.10
2019-02-06T09:55:30.970Z,11.50
2019-02-06T09:58:02.815Z,13.77
2019-02-06T10:00:37.115Z,11.40
2019-02-06T10:03:09.448Z,12.97
2019-02-06T10:05:41.249Z,13.40
2019-02-06T10:08:12.909Z,13.93
2019-02-06T10:10:45.038Z,12.70
2019-02-06T10:13:16.767Z,12.47
2019-02-06T10:15:48.864Z,12.40
2019-02-06T10:18:20.469Z,12.10
2019-02-06T10:20:53.523Z,12.70
2019-02-06T10:23:25.255Z,12.27
2019-02-06T10:25:57.120Z,12.60
2019-02-06T10:28:29.166Z,12.90
2019-02-06T10:31:00.813Z,13.50
2019-02-06T10:33:32.463Z,12.30
2019-02-06T10:36:04.282Z,12.70
2019-02-06T10:38:36.236Z,13.10
2019-02-06T10:41:08.025Z,13.30
2019-02-06T10:43:39.690Z,13.23
2019-02-06T10:46:12.155Z,12.37
2019-02-06T10:48:44.040Z,12.70
2019-02-06T10:51:16.234Z,12.53
2019-02-06T10:53:48.310Z,14.47
2019-02-06T10:56:20.333Z,14.43
2019-02-06T10:58:52.087Z,13.57
2019-02-06T11:01:23.732Z,13.97
2019-02-06T11:03:55.619Z,13.87
2019-02-06T11:06:27.446Z,14.23
2019-02-06T11:08:59.505Z,13.30
2019-02-06T11:11:31.189Z,15.57
2019-02-06T11:14:03.135Z,15.80
2019-02-06T11:16:34.818Z,26.47
2019-02-06T11:19:06.880Z,29.27
2019-02-06T11:21:38.647Z,25.37
2019-02-06T11:24:10.900Z,29.67
2019-02-06T11:26:42.647Z,22.90
2019-02-06T11:29:14.347Z,16.87
2019-02-06T11:31:46.574Z,14.07
2019-02-06T11:34:18.235Z,13.87
2019-02-06T11:36:49.998Z,12.87
2019-02-06T11:39:24.333Z,14.43
2019-02-06T11:41:56.108Z,13.97
2019-02-06T11:44:28.536Z,13.70
2019-02-06T11:47:00.416Z,14.40
2019-02-06T11:49:40.093Z,13.90
2019-02-06T11:52:11.747Z,12.50
2019-02-06T11:54:44.028Z,13.37
2019-02-06T11:57:15.680Z,45.83
2019-02-06T11:59:47.432Z,27.20
2019-02-06T12:02:20.946Z,18.97
2019-02-06T12:04:52.901Z,14.97
2019-02-06T12:07:25.093Z,15.00
2019-02-06T12:10:09.020Z,18.93
2019-02-06T12:12:30.866Z,14.27
2019-02-06T12:15:02.526Z,14.00
2019-02-06T12:17:34.250Z,15.77
2019-02-06T12:20:13.225Z,13.63
2019-02-06T12:22:44.921Z,16.03
2019-02-06T12:25:18.463Z,13.60
2019-02-06T12:27:50.324Z,12.87
2019-02-06T12:30:27.275Z,13.17
2019-02-06T12:32:59.222Z,11.80
2019-02-06T12:35:31.226Z,14.20
2019-02-06T12:38:03.381Z,14.47
2019-02-06T12:40:35.212Z,12.80
2019-02-06T12:43:10.556Z,13.10
2019-02-06T12:45:42.521Z,12.87
2019-02-06T12:48:14.261Z,13.93
2019-02-06T12:50:46.451Z,13.43
2019-02-06T12:53:18.339Z,13.03
2019-02-06T12:55:50.035Z,13.30
2019-02-06T12:58:22.678Z,13.57
2019-02-06T13:00:54.331Z,12.57
2019-02-06T13:03:26.088Z,13.00
2019-02-06T13:05:57.796Z,13.97
2019-02-06T13:08:29.465Z,12.57
2019-02-06T13:11:01.547Z,13.60
2019-02-06T13:13:34.144Z,13.67
2019-02-06T13:16:05.942Z,12.17
2019-02-06T13:18:38.942Z,15.87
2019-02-06T13:21:10.714Z,14.83
2019-02-06T13:23:42.490Z,14.67
2019-02-06T13:26:14.178Z,14.73
2019-02-06T13:28:46.322Z,13.70
2019-02-06T13:31:18.068Z,15.10
2019-02-06T13:33:49.850Z,14.87
2019-02-06T13:36:22.113Z,16.20
2019-02-06T13:38:53.893Z,14.90
2019-02-06T13:41:25.537Z,14.67
2019-02-06T13:43:57.959Z,15.77
2019-02-06T13:46:29.928Z,13.67
2019-02-06T13:49:01.681Z,16.87
2019-02-06T13:51:33.362Z,15.57
2019-02-06T13:54:05.234Z,15.13
2019-02-06T13:56:37.317Z,15.77
2019-02-06T13:59:09.066Z,15.37
2019-02-06T14:01:41.295Z,15.03
2019-02-06T14:04:12.973Z,15.60
2019-02-06T14:06:45.089Z,15.43
2019-02-06T14:09:22.644Z,15.23
2019-02-06T14:11:51.498Z,16.20
2019-02-06T14:14:23.337Z,14.10
2019-02-06T14:16:55.482Z,13.93
2019-02-06T14:19:27.172Z,14.80
2019-02-06T14:21:58.860Z,14.97
2019-02-06T14:25:06.125Z,15.10
2019-02-06T14:28:49.710Z,15.60
2019-02-06T14:32:12.030Z,16.77
2019-02-06T14:35:24.272Z,14.03
2019-02-06T14:38:37.202Z,13.60
2019-02-06T14:41:44.667Z,14.37
2019-02-06T14:45:30.324Z,13.37
2019-02-06T14:48:48.820Z,12.87
2019-02-06T14:51:48.274Z,12.60
2019-02-06T14:54:50.522Z,14.40
2019-02-06T14:58:24.930Z,14.17
2019-02-06T15:01:51.168Z,14.30
2019-02-06T15:05:19.108Z,16.07
2019-02-06T15:08:40.541Z,14.63
2019-02-06T15:11:34.637Z,14.70
2019-02-06T15:15:17.165Z,15.30
2019-02-06T15:18:34.893Z,14.90
2019-02-06T15:21:42.725Z,15.80
2019-02-06T15:25:13.980Z,14.33
2019-02-06T15:28:22.081Z,13.97
2019-02-06T15:31:38.730Z,15.60
2019-02-06T15:35:10.227Z,15.43
2019-02-06T15:38:41.638Z,15.40
2019-02-06T15:42:06.824Z,14.43
2019-02-06T15:45:35.800Z,14.90
2019-02-06T15:48:54.638Z,15.43
2019-02-06T15:52:21.171Z,16.00
2019-02-06T15:55:59.473Z,14.30
2019-02-06T15:59:41.561Z,14.10
2019-02-06T16:02:57.272Z,13.17
2019-02-06T16:06:23.455Z,15.57
2019-02-06T16:09:45.751Z,15.23
2019-02-06T16:12:32.216Z,16.20
2019-02-06T16:16:15.855Z,14.83
2019-02-06T16:19:43.250Z,14.47
2019-02-06T16:22:48.276Z,14.70
2019-02-06T16:25:49.612Z,16.03
2019-02-06T16:29:12.558Z,15.97
2019-02-06T16:32:17.416Z,16.57
2019-02-06T16:35:19.593Z,16.83
2019-02-06T16:38:37.102Z,17.77
2019-02-06T16:42:08.422Z,19.10
2019-02-06T16:45:27.149Z,18.40
2019-02-06T16:48:58.957Z,16.53
2019-02-06T16:51:44.809Z,16.53
2019-02-06T16:55:10.850Z,14.90
2019-02-06T16:58:47.490Z,15.07
2019-02-06T17:02:11.609Z,14.80
2019-02-06T17:05:46.785Z,14.57
2019-02-06T17:09:16.452Z,14.90
2019-02-06T17:12:39.591Z,14.20
2019-02-06T17:16:33.355Z,14.40
2019-02-06T17:20:03.823Z,13.30
2019-02-06T17:23:43.533Z,13.70
2019-02-06T17:27:20.921Z,14.20
2019-02-06T17:30:53.084Z,12.93
2019-02-06T17:34:24.037Z,13.17
2019-02-06T17:37:28.724Z,13.87
2019-02-06T17:41:23.628Z,13.03
2019-02-06T17:44:54.859Z,13.70
2019-02-06T17:48:12.821Z,12.20
2019-02-06T17:52:08.697Z,15.00
2019-02-06T17:55:25.615Z,12.93
2019-02-06T17:58:03.607Z,15.40
2019-02-06T18:01:15.310Z,15.90
2019-02-06T18:03:59.967Z,20.17
2019-02-06T18:06:31.777Z,31.30
2019-02-06T18:09:11.946Z,34.07
2019-02-06T18:11:43.620Z,33.13
2019-02-06T18:14:15.406Z,21.50
2019-02-06T18:16:47.150Z,15.72
2019-02-06T18:19:19.012Z,14.20
2019-02-06T18:21:50.921Z,17.97
2019-02-06T18:24:22.616Z,14.90
2019-02-06T18:26:56.131Z,13.63
2019-02-06T18:29:27.895Z,13.10
2019-02-06T18:31:59.799Z,13.90
2019-02-06T18:34:31.535Z,15.17
2019-02-06T18:37:03.525Z,14.63
2019-02-06T18:39:35.312Z,15.00
2019-02-06T18:42:07.132Z,14.47
2019-02-06T18:44:39.208Z,14.80
2019-02-06T18:47:11.907Z,15.53
2019-02-06T18:49:44.164Z,13.43
2019-02-06T18:52:20.304Z,13.87
2019-02-06T18:54:49.508Z,13.27
2019-02-06T18:57:21.262Z,12.90
2019-02-06T18:59:53.533Z,15.17
2019-02-06T19:02:25.656Z,13.97
2019-02-06T19:04:57.482Z,14.40
2019-02-06T19:07:29.272Z,14.87
2019-02-06T19:10:02.528Z,13.57
2019-02-06T19:12:34.345Z,15.40
2019-02-06T19:15:08.633Z,15.87
2019-02-06T19:17:40.346Z,13.53
2019-02-06T19:20:13.613Z,15.60
2019-02-06T19:22:45.457Z,16.30
2019-02-06T19:25:17.558Z,19.07
2019-02-06T19:27:49.693Z,21.60
2019-02-06T19:30:31.753Z,20.77
2019-02-06T19:33:03.555Z,19.30
2019-02-06T19:35:35.387Z,17.27
2019-02-06T19:38:08.501Z,17.10
2019-02-06T19:40:40.447Z,17.90
2019-02-06T19:43:23.876Z,16.50
2019-02-06T19:46:01.277Z,18.27
2019-02-06T19:48:33.104Z,18.47
2019-02-06T19:51:04.923Z,18.40
2019-02-06T19:53:36.601Z,17.90
2019-02-06T19:56:08.681Z,17.63
2019-02-06T19:58:41.121Z,16.00
2019-02-06T20:01:13.702Z,14.97
2019-02-06T20:03:45.381Z,17.37
2019-02-06T20:06:29.702Z,18.90
2019-02-06T20:09:07.924Z,20.87
2019-02-06T20:11:39.730Z,22.67
2019-02-06T20:14:11.705Z,23.30
2019-02-06T20:16:44.167Z,21.67
2019-02-06T20:19:15.882Z,20.70
2019-02-06T20:21:47.910Z,22.43
2019-02-06T20:24:19.694Z,30.50
2019-02-06T20:26:51.507Z,33.73
2019-02-06T20:29:23.299Z,32.60
2019-02-06T20:31:55.796Z,30.83
2019-02-06T20:34:28.011Z,30.47
2019-02-06T20:36:59.845Z,23.03
2019-02-06T20:39:31.583Z,25.07
2019-02-06T20:42:03.318Z,21.13
2019-02-06T20:44:35.185Z,19.70
2019-02-06T20:47:10.881Z,19.23
2019-02-06T20:49:42.572Z,20.27
2019-02-06T20:52:14.294Z,20.70
2019-02-06T20:54:46.058Z,19.13
2019-02-06T20:57:17.833Z,19.57
2019-02-06T20:59:53.464Z,16.87
2019-02-06T21:02:29.537Z,17.70
2019-02-06T21:05:02.368Z,16.60
2019-02-06T21:07:34.332Z,16.70
2019-02-06T21:10:09.261Z,16.97
2019-02-06T21:12:41.436Z,16.17
2019-02-06T21:15:13.604Z,16.30
2019-02-06T21:17:47.852Z,17.07
2019-02-06T21:20:21.860Z,16.33
2019-02-06T21:22:54.371Z,15.27
2019-02-06T21:25:26.353Z,16.53
2019-02-06T21:27:58.065Z,16.07
2019-02-06T21:30:33.227Z,18.00
2019-02-06T21:33:05.627Z,16.90
2019-02-06T21:35:37.674Z,16.00
2019-02-06T21:38:09.848Z,15.03
2019-02-06T21:40:42.214Z,15.60
2019-02-06T21:43:14.084Z,16.80
2019-02-06T21:45:46.536Z,16.47
2019-02-06T21:48:18.407Z,15.70
2019-02-06T21:50:50.227Z,15.93
2019-02-06T21:53:22.136Z,16.90
2019-02-06T21:55:54.181Z,16.40
2019-02-06T21:58:26.103Z,17.20
2019-02-06T22:00:58.182Z,15.90
2019-02-06T22:03:29.945Z,17.33
2019-02-06T22:06:01.956Z,16.50
2019-02-06T22:08:33.632Z,15.07
2019-02-06T22:11:06.292Z,16.27
2019-02-06T22:13:39.800Z,16.87
2019-02-06T22:16:11.509Z,16.57
2019-02-06T22:18:43.431Z,21.10
2019-02-06T22:21:15.537Z,23.17
2019-02-06T22:23:47.688Z,27.20
2019-02-06T22:26:20.529Z,25.20
2019-02-06T22:28:52.366Z,25.30
2019-02-06T22:31:24.049Z,24.60
2019-02-06T22:33:56.182Z,19.30
2019-02-06T22:36:27.844Z,18.30
2019-02-06T22:38:59.627Z,17.87
2019-02-06T22:41:31.517Z,18.70
2019-02-06T22:44:06.529Z,18.97
2019-02-06T22:46:37.857Z,18.97
2019-02-06T22:49:09.858Z,18.00
2019-02-06T22:51:41.515Z,19.00
2019-02-06T22:54:13.354Z,18.70
2019-02-06T22:56:45.306Z,18.80
2019-02-06T22:59:19.117Z,19.30
2019-02-06T23:01:57.703Z,16.80
2019-02-06T23:04:29.436Z,17.73
2019-02-06T23:07:01.319Z,15.97
2019-02-06T23:09:33.147Z,16.47
2019-02-06T23:12:04.818Z,18.00
2019-02-06T23:14:37.655Z,17.47
2019-02-06T23:17:09.374Z,20.20
2019-02-06T23:19:41.058Z,21.17
2019-02-06T23:22:12.767Z,20.33
2019-02-06T23:24:45.186Z,20.90
2019-02-06T23:27:18.269Z,20.37
2019-02-06T23:29:50.490Z,20.17
2019-02-06T23:32:22.264Z,19.13
2019-02-06T23:34:53.872Z,22.40
2019-02-06T23:37:26.375Z,23.30
2019-02-06T23:39:58.018Z,23.03
2019-02-06T23:42:29.775Z,21.10
2019-02-06T23:45:02.569Z,22.50
2019-02-06T23:47:34.193Z,20.83
2019-02-06T23:50:07.152Z,21.23
2019-02-06T23:52:39.224Z,18.73
2019-02-06T23:55:11.416Z,20.37
2019-02-06T23:57:43.087Z,18.67
